Flight Number: EUR1498 Duration: 0:45
Departure: Gatwick Airport (EGKK) at 07:45 Distance: 172 Nm
Arrival: Leeds Bradford (EGNM) at 08:30 Equipment: CRJ700

Weather Information
London / Gatwick Airport, United Kingdom (EGKK) 51-09N 000-11W 0M Jan 23, 2018 - 04:20 AM EST / 2018.01.23 0920 UTC
Wind: from the SSW (200 degrees) at 10 MPH (9 KT):0
Visibility: 2 mile(s):0
Sky conditions: overcast Weather: drizzle; mist Temperature: 48 F (9 C) Dew Point: 48 F (9 C) Relative Humidity: 100% Pressure (altimeter): 30.00 in. Hg (1016 hPa)
ob: EGKK 230920Z 20009KT 3500 DZ BR OVC004 09/09 Q1016 cycle: 9
Sunrise: 07:53 Sunset: 16:31 (UTC)

Leeds And Bradford, United Kingdom (EGNM) 53-52N 001-39W Jan 23, 2018 - 04:20 AM EST / 2018.01.23 0920 UTC
Wind: from the SW (220 degrees) at 14 MPH (12 KT) (direction variable):0
Visibility: greater than 7 mile(s):0
Sky conditions: mostly cloudy Weather: light drizzle Temperature: 48 F (9 C) Dew Point: 46 F (8 C) Relative Humidity: 93% Pressure (altimeter): 29.71 in. Hg (1006 hPa)
ob: EGNM 230920Z 22012KT 160V250 9999 -DZ SCT009 BKN010 09/08 Q1006 cycle: 9
Sunrise: 08:10 Sunset: 16:26 (UTC)

TAF:2018/01/23 06:42 TAF TAF EGNM 222258Z 2306/2406 25017KT 9999 SCT018 TEMPO 2306/2406 22022G33KT TEMPO 2306/2315 6000 RA BKN008 PROB30 TEMPO 2308/2314 3000 BR BKN002 BECMG 2400/2403 7000 RA BKN012 TEMPO 2400/2406 3000 RA BKN006 PROB30 TEMPO 2400/2406 1400 RADZ BKN001

Previous Pireps for this route
Date Aircraft Flight time Fuel used Landing rate On time
2015-05-11MD-8101.157987-451Charter
2015-05-15B73700.516602-171Charter
2015-05-19CRJ7000.3821660Yes
2015-05-26CRJ7000.5020190Yes
2015-05-31CRJ7000.4021210Yes
2015-06-02CRJ7000.3719100Yes
2015-06-15CRJ7000.3719140Yes
2015-06-30CRJ7000.4022530Yes
2015-07-15CRJ7000.3519120No
2015-07-16CRJ7000.4324510Yes
2016-01-16CRJ7000.3623170Yes
2016-04-16CRJ7000.4019720Yes
2017-08-06CRJ7000.552509-1016No
(pireps marked green are flown by you)

Route map